New Providence, New Jersey
Current Conditions -  °F | °C
As of 4:45 PM on Tuesday 25 Nov 2014 (Local Time) from KMMU Reporting Station
Broken Clouds Broken Clouds  
Wind Chill: 50°   Ceiling: 25000
Heat Index: 50°   Visibility: 10mi
Dew Point: 28°   Wind: 5mph
Humidity: 43%   Direction: 240°WSW
Pressure: 30.03"   Gusts: NA
Location:  40.71°N, 74.4°W
Report Text: KMMU 252145Z 24004KT 10SM SCT150 BKN250 10/M02 A3003
Loading
Personal Weather Stations






























Interactive Weather Map New forecast layout! Learn more

10-Day Weather Forecast

Advertisements
Track Severe Weather on mobile